Time;durP1;ratioP1;P1;durP2;ratioP2;P2;SDS_P1;SDS_P2;PMS_P1;PMS_P2;Temp;Humidity;BMP_temperature;BMP_pressure;BME280_temperature;BME280_humidity;BME280_pressure;Samples;Min_cycle;Max_cycle;Signal;HPM_P1;HPM_P2
2021/01/10 00:00:21;;;;;;;0.90;0.20;;;24.40;78.70;;;;;;5067674;28;20397;-86
2021/01/10 00:02:53;;;;;;;1.90;0.22;;;24.50;77.10;;;;;;5064813;28;20829;-84
2021/01/10 00:05:31;;;;;;;1.60;0.30;;;24.20;80.40;;;;;;5073654;28;20431;-84
2021/01/10 00:07:58;;;;;;;0.60;0.30;;;24.00;79.90;;;;;;5088804;28;20369;-85
2021/01/10 00:10:27;;;;;;;0.70;0.20;;;24.10;84.50;;;;;;5089190;28;20460;-85
2021/01/10 00:13:02;;;;;;;0.63;0.30;;;24.40;81.80;;;;;;5082294;28;20394;-85
2021/01/10 00:15:29;;;;;;;1.70;0.35;;;24.30;81.30;;;;;;5067337;28;20397;-83
2021/01/10 00:17:57;;;;;;;0.73;0.30;;;24.00;78.80;;;;;;5068755;28;20433;-83
2021/01/10 00:20:24;;;;;;;1.20;0.20;;;23.80;82.00;;;;;;5068260;28;20378;-83
2021/01/10 00:22:58;;;;;;;0.60;0.20;;;23.70;80.80;;;;;;5066990;28;20524;-83
2021/01/10 00:25:25;;;;;;;0.90;0.20;;;23.80;80.70;;;;;;5070312;28;20495;-84
2021/01/10 00:27:52;;;;;;;0.43;0.20;;;24.30;76.80;;;;;;5067189;28;20845;-84
2021/01/10 00:30:21;;;;;;;1.85;0.35;;;24.50;74.20;;;;;;5048282;28;20368;-84
2021/01/10 00:32:53;;;;;;;1.23;0.43;;;24.40;76.90;;;;;;5068160;28;20394;-84
2021/01/10 00:35:22;;;;;;;0.40;0.20;;;24.20;79.50;;;;;;5067859;28;20903;-85
2021/01/10 00:37:51;;;;;;;1.10;0.30;;;23.90;80.00;;;;;;5067285;28;20409;-85
2021/01/10 00:40:20;;;;;;;0.80;0.32;;;24.00;79.30;;;;;;5074001;28;20869;-86
2021/01/10 00:42:48;;;;;;;1.90;0.30;;;24.20;77.70;;;;;;5072196;28;20417;-85
2021/01/10 00:45:17;;;;;;;0.90;0.32;;;23.90;80.30;;;;;;5071605;28;20477;-84
2021/01/10 00:47:44;;;;;;;0.80;0.30;;;23.80;82.50;;;;;;5071021;28;20406;-85
2021/01/10 00:50:12;;;;;;;0.50;0.30;;;23.60;80.30;;;;;;5071732;28;20378;-85
2021/01/10 00:52:39;;;;;;;0.80;0.30;;;24.10;82.20;;;;;;5067192;28;20394;-84
2021/01/10 00:55:08;;;;;;;1.23;0.30;;;25.20;76.50;;;;;;5065727;28;20409;-85
2021/01/10 00:57:35;;;;;;;0.20;0.20;;;26.10;70.50;;;;;;5068944;28;20457;-84
2021/01/10 01:00:05;;;;;;;0.70;0.30;;;26.60;68.60;;;;;;5070450;28;20417;-83
2021/01/10 01:02:32;;;;;;;1.00;0.30;;;27.20;67.20;;;;;;5069300;28;20398;-85
2021/01/10 01:04:59;;;;;;;1.43;0.47;;;27.60;66.20;;;;;;5069764;28;21542;-86
2021/01/10 01:07:26;;;;;;;13.37;0.80;;;27.60;66.10;;;;;;5069473;28;20870;-84
2021/01/10 01:09:53;;;;;;;0.40;0.27;;;27.70;65.50;;;;;;5070395;28;20409;-84
2021/01/10 01:12:20;;;;;;;0.55;0.30;;;28.00;66.80;;;;;;5071169;28;20483;-85
2021/01/10 01:14:47;;;;;;;0.67;0.27;;;27.70;61.80;;;;;;5070713;28;20818;-85
2021/01/10 01:17:14;;;;;;;1.67;0.80;;;27.60;63.40;;;;;;5069229;28;20455;-85
2021/01/10 01:19:41;;;;;;;0.57;0.40;;;27.80;63.30;;;;;;5061161;28;20487;-85
2021/01/10 01:22:08;;;;;;;0.20;0.10;;;27.00;63.90;;;;;;5067400;28;20397;-86
2021/01/10 01:24:35;;;;;;;1.30;0.20;;;26.80;65.10;;;;;;5060719;28;20900;-87
2021/01/10 01:27:02;;;;;;;0.82;0.30;;;26.90;67.10;;;;;;5066629;28;20421;-89
2021/01/10 01:29:29;;;;;;;0.50;0.22;;;26.70;64.50;;;;;;5069659;28;20402;-87
2021/01/10 01:31:56;;;;;;;0.50;0.20;;;26.50;66.50;;;;;;5068995;28;20400;-86
2021/01/10 01:34:23;;;;;;;0.30;0.30;;;26.80;69.00;;;;;;5071227;28;20366;-89
2021/01/10 01:36:50;;;;;;;0.70;0.22;;;26.90;64.80;;;;;;5070952;28;20374;-90
2021/01/10 01:39:17;;;;;;;0.55;0.20;;;27.10;66.20;;;;;;5070789;28;20450;-87
2021/01/10 01:41:44;;;;;;;0.40;0.30;;;27.10;63.60;;;;;;5063107;28;20384;-88
2021/01/10 01:44:11;;;;;;;0.30;0.20;;;26.90;64.10;;;;;;5065191;28;20457;-88
2021/01/10 01:46:38;;;;;;;1.00;0.30;;;26.70;63.40;;;;;;5051927;28;20795;-91
2021/01/10 01:49:08;;;;;;;0.38;0.20;;;26.50;66.00;;;;;;5064339;28;20398;-89
2021/01/10 01:51:36;;;;;;;0.52;0.20;;;26.60;63.20;;;;;;5070541;28;20449;-91
2021/01/10 01:54:07;;;;;;;0.50;0.20;;;26.40;66.00;;;;;;5070277;28;20370;-89
2021/01/10 01:56:35;;;;;;;0.95;0.20;;;26.20;66.20;;;;;;5070220;28;20426;-87
2021/01/10 01:59:08;;;;;;;0.55;0.30;;;26.30;67.90;;;;;;5067575;28;20884;-87
2021/01/10 02:01:37;;;;;;;0.60;0.40;;;26.40;65.70;;;;;;5069047;28;20737;-88
2021/01/10 02:04:30;;;;;;;0.20;0.20;;;26.50;66.00;;;;;;5051195;28;20395;-88
2021/01/10 02:07:00;;;;;;;0.45;0.10;;;26.40;63.60;;;;;;5044761;28;20802;-86
2021/01/10 02:09:29;;;;;;;0.50;0.10;;;26.20;69.70;;;;;;5054644;28;20470;-86
2021/01/10 02:12:02;;;;;;;0.20;0.20;;;26.40;69.60;;;;;;5068096;28;20389;-85
2021/01/10 02:14:35;;;;;;;1.08;0.30;;;26.50;65.70;;;;;;5067295;28;20390;-87
2021/01/10 02:17:03;;;;;;;0.70;0.30;;;26.50;67.20;;;;;;5064075;28;20394;-88
2021/01/10 02:19:37;;;;;;;0.45;0.30;;;26.30;63.70;;;;;;5065457;28;20484;-87
2021/01/10 02:22:05;;;;;;;0.88;0.20;;;26.30;65.40;;;;;;5064412;28;20386;-88
2021/01/10 02:24:35;;;;;;;0.28;0.20;;;26.20;65.20;;;;;;5066034;28;20401;-86
2021/01/10 02:27:06;;;;;;;0.38;0.10;;;26.40;66.80;;;;;;5068557;28;20741;-87
2021/01/10 02:29:36;;;;;;;0.10;0.10;;;26.60;68.30;;;;;;5068920;28;21076;-87
2021/01/10 02:32:05;;;;;;;0.47;0.30;;;26.80;62.40;;;;;;5067127;28;20753;-88
2021/01/10 02:34:35;;;;;;;1.55;0.50;;;26.80;63.50;;;;;;5069170;28;20444;-87
2021/01/10 02:37:40;;;;;;;0.75;0.22;;;27.00;65.40;;;;;;5059401;28;20733;-87
2021/01/10 02:40:38;;;;;;;2.15;0.30;;;27.10;67.00;;;;;;5039692;28;20394;-85
2021/01/10 02:43:17;;;;;;;1.07;0.20;;;27.20;67.00;;;;;;5041173;28;20412;-86
2021/01/10 02:45:46;;;;;;;0.30;0.13;;;26.90;62.40;;;;;;5055241;28;20422;-87
2021/01/10 02:48:13;;;;;;;0.22;0.22;;;26.50;66.10;;;;;;5069647;28;20822;-86
2021/01/10 02:50:41;;;;;;;0.77;0.30;;;26.30;63.50;;;;;;5061065;28;20471;-86
2021/01/10 02:53:08;;;;;;;0.52;0.13;;;26.30;67.60;;;;;;5062736;28;20404;-85
2021/01/10 02:55:35;;;;;;;1.25;0.20;;;26.50;64.80;;;;;;5058511;28;20406;-86
2021/01/10 02:58:24;;;;;;;0.57;0.30;;;26.60;64.90;;;;;;5066848;28;20412;-86
2021/01/10 03:00:55;;;;;;;2.60;0.20;;;26.60;64.00;;;;;;5067582;28;20748;-85
2021/01/10 03:03:22;;;;;;;2.10;0.30;;;26.30;69.70;;;;;;5055832;28;20397;-86
2021/01/10 03:05:50;;;;;;;2.35;0.30;;;25.90;71.90;;;;;;5066559;28;20473;-86
2021/01/10 03:08:18;;;;;;;0.80;0.40;;;25.70;71.80;;;;;;5066620;28;20397;-87
2021/01/10 03:10:47;;;;;;;0.77;0.30;;;25.80;74.50;;;;;;5049286;28;20404;-86
2021/01/10 03:13:16;;;;;;;0.95;0.28;;;26.20;75.70;;;;;;5055766;28;20400;-86
2021/01/10 03:15:45;;;;;;;0.80;0.20;;;26.50;70.60;;;;;;5069568;28;20861;-85
2021/01/10 03:18:21;;;;;;;2.20;0.30;;;26.70;70.80;;;;;;5068060;28;20425;-84
2021/01/10 03:20:49;;;;;;;0.30;0.20;;;26.80;69.60;;;;;;5066220;28;20386;-85
2021/01/10 03:23:17;;;;;;;3.15;0.40;;;26.90;70.00;;;;;;5066529;28;20963;-84
2021/01/10 03:25:44;;;;;;;1.00;0.30;;;27.00;68.20;;;;;;5061730;28;20442;-85
2021/01/10 03:28:11;;;;;;;1.20;0.30;;;26.90;67.10;;;;;;5056832;28;20486;-84
2021/01/10 03:30:39;;;;;;;0.60;0.20;;;26.80;68.70;;;;;;5064612;28;20477;-85
2021/01/10 03:33:06;;;;;;;2.10;0.30;;;26.70;68.70;;;;;;5065666;28;20390;-86
2021/01/10 03:35:37;;;;;;;2.10;0.30;;;26.50;70.00;;;;;;5069737;28;20390;-85
2021/01/10 03:38:05;;;;;;;1.40;0.20;;;26.50;71.40;;;;;;5067218;28;20488;-83
2021/01/10 03:40:32;;;;;;;0.90;0.30;;;26.60;70.40;;;;;;5068870;28;20394;-84
2021/01/10 03:42:59;;;;;;;2.22;0.40;;;26.50;68.80;;;;;;5065231;28;20742;-85
2021/01/10 03:45:26;;;;;;;1.13;0.40;;;26.40;71.00;;;;;;5070239;28;20392;-84
2021/01/10 03:47:53;;;;;;;0.80;0.20;;;26.40;70.40;;;;;;5069210;28;20726;-84
2021/01/10 03:50:20;;;;;;;2.60;0.20;;;26.50;68.20;;;;;;5071493;28;20740;-84
2021/01/10 03:52:47;;;;;;;0.70;0.30;;;26.60;69.70;;;;;;5071782;28;20729;-84
2021/01/10 03:55:14;;;;;;;1.13;0.20;;;26.60;69.50;;;;;;5071229;28;20433;-84
2021/01/10 03:57:41;;;;;;;0.80;0.30;;;26.60;67.00;;;;;;5070747;28;20394;-85
2021/01/10 04:00:11;;;;;;;0.45;0.20;;;26.40;67.50;;;;;;5071352;28;20389;-84
2021/01/10 04:02:38;;;;;;;0.75;0.25;;;26.30;68.00;;;;;;5073440;28;20361;-85
2021/01/10 04:05:06;;;;;;;0.50;0.13;;;26.50;67.80;;;;;;5071550;28;20412;-84
2021/01/10 04:07:33;;;;;;;0.80;0.25;;;26.70;68.00;;;;;;5072768;28;20375;-83
2021/01/10 04:10:00;;;;;;;0.77;0.20;;;26.60;68.80;;;;;;5071518;28;20373;-86
2021/01/10 04:12:27;;;;;;;1.02;0.20;;;26.60;67.70;;;;;;5068875;28;20857;-86
2021/01/10 04:14:57;;;;;;;3.10;0.20;;;26.50;68.00;;;;;;5072384;28;20381;-86
2021/01/10 04:17:25;;;;;;;1.00;0.20;;;26.50;70.60;;;;;;5071966;28;21018;-85
2021/01/10 04:19:55;;;;;;;0.70;0.20;;;26.50;70.80;;;;;;5071994;28;20374;-85
2021/01/10 04:22:23;;;;;;;1.92;0.20;;;26.60;68.90;;;;;;5072468;28;20382;-85
2021/01/10 04:24:51;;;;;;;0.50;0.10;;;26.50;66.40;;;;;;5071943;28;20370;-85
2021/01/10 04:27:21;;;;;;;1.40;0.20;;;26.40;70.40;;;;;;5072077;28;20738;-86
2021/01/10 04:29:48;;;;;;;0.98;0.40;;;26.50;69.20;;;;;;5071782;28;20385;-86
2021/01/10 04:32:15;;;;;;;0.95;0.20;;;26.40;66.90;;;;;;5071702;28;20734;-85
2021/01/10 04:34:42;;;;;;;1.08;0.10;;;26.30;67.90;;;;;;5071668;28;20465;-85
2021/01/10 04:37:09;;;;;;;1.20;0.10;;;26.30;68.90;;;;;;5071717;28;20448;-86
2021/01/10 04:39:36;;;;;;;1.70;0.15;;;26.40;66.50;;;;;;5071622;28;20484;-86
2021/01/10 04:42:04;;;;;;;1.10;0.20;;;26.20;65.90;;;;;;5071530;28;20715;-86
2021/01/10 04:44:32;;;;;;;0.40;0.20;;;26.10;68.40;;;;;;5071734;28;20386;-85
2021/01/10 04:46:59;;;;;;;1.08;0.20;;;26.00;65.60;;;;;;5071505;28;20397;-86
2021/01/10 04:49:27;;;;;;;0.70;0.17;;;25.80;68.80;;;;;;5071540;28;20388;-85
2021/01/10 04:51:56;;;;;;;2.15;0.60;;;25.90;65.40;;;;;;5071928;28;20470;-86
2021/01/10 04:54:27;;;;;;;1.67;0.20;;;25.80;68.70;;;;;;5053532;28;20866;-85
2021/01/10 04:56:57;;;;;;;2.25;0.30;;;25.70;68.80;;;;;;5071137;28;20440;-85
2021/01/10 04:59:27;;;;;;;1.10;0.20;;;25.80;67.20;;;;;;5071511;28;20423;-85
2021/01/10 05:02:00;;;;;;;0.35;0.13;;;26.00;67.30;;;;;;5071274;28;20410;-85
2021/01/10 05:04:30;;;;;;;1.67;0.20;;;25.90;65.80;;;;;;5071235;28;20425;-85
2021/01/10 05:06:59;;;;;;;0.88;0.10;;;25.70;66.10;;;;;;5071054;28;20382;-86
2021/01/10 05:09:27;;;;;;;1.45;0.17;;;25.80;66.40;;;;;;5070933;28;20390;-84
2021/01/10 05:11:55;;;;;;;0.63;0.10;;;25.80;65.30;;;;;;5071005;28;20412;-86
2021/01/10 05:14:22;;;;;;;0.80;0.17;;;25.90;67.00;;;;;;5071177;28;20396;-86
2021/01/10 05:16:49;;;;;;;0.20;0.10;;;26.00;65.90;;;;;;5071122;28;20413;-86
2021/01/10 05:19:23;;;;;;;1.30;0.10;;;26.00;65.80;;;;;;5071006;28;20457;-86
2021/01/10 05:21:50;;;;;;;1.13;0.30;;;25.90;65.90;;;;;;5071213;28;20405;-85
2021/01/10 05:24:19;;;;;;;0.32;0.10;;;25.90;64.30;;;;;;5070596;28;20378;-86
2021/01/10 05:26:47;;;;;;;1.20;0.30;;;25.70;66.10;;;;;;5070730;28;20691;-86
2021/01/10 05:29:14;;;;;;;0.30;0.20;;;25.80;64.70;;;;;;5070797;28;20382;-85
2021/01/10 05:31:46;;;;;;;1.03;0.43;;;25.80;64.70;;;;;;5070915;28;20442;-85
2021/01/10 05:34:19;;;;;;;1.67;0.10;;;25.80;63.20;;;;;;5070620;28;20387;-84
2021/01/10 05:36:49;;;;;;;1.55;0.22;;;25.60;64.90;;;;;;5070627;28;20374;-85
2021/01/10 05:39:28;;;;;;;0.80;0.10;;;25.50;67.30;;;;;;5070513;28;20402;-84
2021/01/10 05:42:04;;;;;;;1.00;0.40;;;25.60;65.80;;;;;;5070442;28;20401;-85
2021/01/10 05:44:41;;;;;;;3.63;0.50;;;25.50;64.70;;;;;;5070703;28;20370;-86
2021/01/10 05:47:12;;;;;;;0.93;0.20;;;25.40;66.10;;;;;;5070695;28;20390;-85
2021/01/10 05:49:47;;;;;;;0.73;0.10;;;25.40;67.40;;;;;;5070287;28;20378;-87
2021/01/10 05:52:15;;;;;;;1.15;0.10;;;25.40;66.00;;;;;;5070730;28;20374;-86
2021/01/10 05:54:58;;;;;;;0.70;0.10;;;25.40;66.30;;;;;;5070198;28;20948;-85
2021/01/10 05:57:31;;;;;;;1.73;0.10;;;25.20;68.50;;;;;;5070115;28;20418;-86
2021/01/10 06:00:00;;;;;;;0.50;0.10;;;25.10;69.20;;;;;;5070133;28;20472;-86
2021/01/10 06:02:37;;;;;;;1.08;0.20;;;25.00;68.80;;;;;;5070467;28;20374;-86
2021/01/10 06:05:18;;;;;;;2.10;0.52;;;24.90;69.60;;;;;;5069966;28;20421;-85
2021/01/10 06:07:46;;;;;;;1.00;0.10;;;24.90;69.00;;;;;;5070171;28;20888;-85
2021/01/10 06:10:24;;;;;;;0.70;0.20;;;24.80;69.70;;;;;;5068228;28;20394;-84
2021/01/10 06:13:07;;;;;;;0.60;0.20;;;24.80;69.50;;;;;;5070133;28;20888;-85
2021/01/10 06:15:36;;;;;;;3.85;3.25;;;24.70;70.30;;;;;;5069759;28;20899;-85
2021/01/10 06:18:04;;;;;;;2.72;2.53;;;24.70;71.20;;;;;;5068541;28;20900;-85
2021/01/10 06:20:36;;;;;;;0.90;0.20;;;24.60;71.70;;;;;;5069892;28;20869;-85
2021/01/10 06:23:06;;;;;;;0.15;0.10;;;24.50;72.10;;;;;;5070347;28;20405;-85
2021/01/10 06:25:37;;;;;;;0.75;0.20;;;24.40;73.40;;;;;;5069924;28;20734;-86
2021/01/10 06:28:12;;;;;;;0.97;0.80;;;24.40;74.10;;;;;;5069831;28;20389;-85
2021/01/10 06:30:48;;;;;;;1.35;0.50;;;24.40;72.80;;;;;;5070476;28;20398;-86
2021/01/10 06:33:27;;;;;;;0.40;0.10;;;24.20;73.80;;;;;;5069771;28;20378;-84
2021/01/10 06:36:05;;;;;;;0.80;0.30;;;24.20;73.10;;;;;;5069034;28;20465;-84
2021/01/10 06:38:39;;;;;;;0.03;0.03;;;24.10;75.30;;;;;;5069193;28;20409;-85
2021/01/10 06:41:25;;;;;;;0.38;0.10;;;24.10;74.20;;;;;;5069244;28;20374;-85
2021/01/10 06:44:01;;;;;;;0.45;0.25;;;24.00;74.70;;;;;;5051520;28;20476;-85
2021/01/10 06:46:29;;;;;;;0.93;0.10;;;23.90;76.00;;;;;;5069482;28;20366;-86
2021/01/10 06:48:56;;;;;;;1.00;0.10;;;23.90;76.80;;;;;;5069912;28;20378;-86
2021/01/10 06:51:25;;;;;;;0.73;0.10;;;23.80;75.60;;;;;;5070339;28;20397;-85
2021/01/10 06:53:53;;;;;;;1.35;0.10;;;23.80;75.10;;;;;;5070186;28;20378;-86
2021/01/10 06:56:21;;;;;;;0.65;0.10;;;23.60;76.70;;;;;;5069315;28;20461;-87
2021/01/10 06:59:09;;;;;;;0.40;0.10;;;23.60;76.10;;;;;;5069066;28;20788;-85
2021/01/10 07:01:56;;;;;;;1.35;0.10;;;23.50;77.30;;;;;;5066992;28;20481;-86
2021/01/10 07:04:33;;;;;;;2.08;0.20;;;23.50;77.90;;;;;;5059696;28;20735;-84
2021/01/10 07:07:00;;;;;;;0.32;0.15;;;23.60;78.60;;;;;;5044861;28;20385;-87
2021/01/10 07:09:46;;;;;;;0.25;0.10;;;23.50;77.00;;;;;;5067346;28;20398;-85
2021/01/10 07:12:21;;;;;;;1.63;0.10;;;23.40;78.10;;;;;;5055857;28;20430;-86
2021/01/10 07:14:48;;;;;;;0.90;0.30;;;23.40;78.70;;;;;;5055264;28;20396;-86
2021/01/10 07:17:17;;;;;;;0.63;0.15;;;23.40;77.80;;;;;;5056485;28;20391;-85
2021/01/10 07:19:48;;;;;;;0.30;0.10;;;23.20;77.40;;;;;;5068237;28;20401;-86
2021/01/10 07:22:27;;;;;;;0.40;0.20;;;23.10;79.20;;;;;;5068680;28;20378;-86
2021/01/10 07:24:55;;;;;;;1.70;0.10;;;23.00;79.40;;;;;;5064464;28;20405;-85
2021/01/10 07:27:33;;;;;;;0.60;0.10;;;22.90;80.40;;;;;;5067468;28;20433;-85
2021/01/10 07:30:21;;;;;;;0.85;0.10;;;22.80;77.10;;;;;;5065536;28;20443;-83
2021/01/10 07:32:48;;;;;;;0.85;0.20;;;22.70;77.90;;;;;;5049283;28;22120;-83
2021/01/10 07:35:16;;;;;;;1.63;0.20;;;22.70;79.40;;;;;;5045153;28;20391;-82
2021/01/10 07:37:44;;;;;;;0.85;0.20;;;22.70;80.30;;;;;;5060529;28;20494;-83
2021/01/10 07:40:12;;;;;;;0.73;0.10;;;22.60;80.60;;;;;;5065846;28;20914;-83
2021/01/10 07:42:40;;;;;;;0.50;0.20;;;22.60;81.30;;;;;;5069260;28;20406;-84
2021/01/10 07:45:20;;;;;;;2.90;0.30;;;22.60;81.20;;;;;;5068908;28;20449;-83
2021/01/10 07:47:52;;;;;;;0.20;0.13;;;22.60;81.40;;;;;;5067159;28;20478;-83
2021/01/10 07:50:21;;;;;;;1.65;0.10;;;22.60;80.70;;;;;;5072867;28;20382;-83
2021/01/10 07:52:56;;;;;;;1.87;0.07;;;22.60;80.10;;;;;;5056836;28;20379;-83
2021/01/10 07:55:31;;;;;;;0.32;0.10;;;22.50;81.50;;;;;;5064196;28;20757;-83
2021/01/10 07:58:03;;;;;;;2.40;0.20;;;22.40;82.40;;;;;;5062626;28;20940;-82
2021/01/10 08:00:35;;;;;;;1.35;0.30;;;22.40;81.70;;;;;;5060015;28;21609;-83
2021/01/10 08:03:19;;;;;;;1.00;0.20;;;22.30;81.90;;;;;;5072561;28;20493;-83
2021/01/10 08:05:58;;;;;;;2.58;0.25;;;22.20;82.30;;;;;;5072423;28;20450;-84
2021/01/10 08:08:46;;;;;;;1.20;0.10;;;22.20;81.40;;;;;;5070653;28;20398;-84
2021/01/10 08:11:34;;;;;;;0.90;0.00;;;22.10;83.10;;;;;;5063094;28;20394;-86
2021/01/10 08:14:10;;;;;;;0.80;0.20;;;22.00;84.60;;;;;;5071419;28;20398;-87
2021/01/10 08:16:37;;;;;;;0.60;0.10;;;21.90;86.00;;;;;;5071888;28;20935;-84
2021/01/10 08:19:07;;;;;;;1.40;0.10;;;21.90;87.40;;;;;;5059496;28;20402;-84
2021/01/10 08:21:34;;;;;;;1.45;0.10;;;21.80;88.10;;;;;;5065516;28;20410;-84
2021/01/10 08:24:03;;;;;;;0.35;0.30;;;21.80;89.30;;;;;;5070119;28;20409;-85
2021/01/10 08:26:30;;;;;;;0.80;0.30;;;21.80;89.70;;;;;;5072001;28;20453;-85
2021/01/10 08:29:06;;;;;;;1.00;0.20;;;21.70;90.10;;;;;;5060959;28;20480;-85
2021/01/10 08:31:34;;;;;;;1.23;0.17;;;21.60;90.60;;;;;;5071948;28;20396;-85
2021/01/10 08:34:08;;;;;;;0.90;0.10;;;21.60;91.30;;;;;;5072020;28;20393;-86
2021/01/10 08:36:36;;;;;;;0.77;0.20;;;21.50;91.50;;;;;;5066935;28;20366;-87
2021/01/10 08:39:09;;;;;;;2.25;0.30;;;21.40;91.90;;;;;;5068679;28;20413;-86
2021/01/10 08:41:46;;;;;;;1.17;0.28;;;21.40;92.30;;;;;;5067850;28;20393;-87
2021/01/10 08:44:15;;;;;;;0.80;0.20;;;21.30;92.60;;;;;;5068087;28;20959;-85
2021/01/10 08:46:44;;;;;;;1.70;0.20;;;21.30;92.70;;;;;;5076067;28;21152;-86
2021/01/10 08:49:19;;;;;;;1.10;0.30;;;21.30;92.80;;;;;;5069461;28;20424;-86
2021/01/10 08:51:49;;;;;;;0.70;0.20;;;21.30;93.00;;;;;;5071131;28;20745;-86
2021/01/10 08:54:19;;;;;;;0.80;0.10;;;21.20;92.70;;;;;;5072623;28;20388;-86
2021/01/10 08:56:56;;;;;;;0.75;0.30;;;21.10;92.70;;;;;;5067932;28;20933;-85
2021/01/10 08:59:39;;;;;;;1.00;0.20;;;21.10;92.80;;;;;;5064055;28;20474;-87
2021/01/10 09:02:08;;;;;;;0.47;0.20;;;21.00;93.00;;;;;;5047314;28;20464;-86
2021/01/10 09:04:43;;;;;;;0.70;0.20;;;20.90;93.20;;;;;;5062637;28;20426;-86
2021/01/10 09:07:13;;;;;;;0.85;0.20;;;20.80;93.30;;;;;;5067538;28;20439;-89
2021/01/10 09:10:06;;;;;;;0.63;0.20;;;20.80;93.50;;;;;;5066281;28;20409;-88
2021/01/10 09:12:57;;;;;;;1.58;0.30;;;20.80;93.70;;;;;;5062405;28;20488;-88
2021/01/10 09:15:38;;;;;;;1.08;0.20;;;20.70;94.10;;;;;;5056631;28;20386;-86
2021/01/10 09:18:17;;;;;;;0.55;0.20;;;20.60;94.40;;;;;;5066563;28;20619;-87
2021/01/10 09:21:02;;;;;;;0.80;0.20;;;20.50;94.70;;;;;;5059692;28;20403;-87
2021/01/10 09:23:30;;;;;;;0.40;0.17;;;20.50;95.00;;;;;;5068421;28;20405;-86
2021/01/10 09:26:00;;;;;;;2.70;0.20;;;20.30;95.50;;;;;;5069315;28;20485;-87
2021/01/10 09:28:33;;;;;;;2.20;0.20;;;20.40;95.70;;;;;;5063097;28;20397;-88
2021/01/10 09:31:03;;;;;;;1.60;0.20;;;20.30;96.00;;;;;;5065740;28;20426;-86
2021/01/10 09:33:33;;;;;;;0.93;0.17;;;20.30;96.30;;;;;;5066560;28;20775;-88
2021/01/10 09:36:03;;;;;;;1.20;0.40;;;20.20;96.80;;;;;;5061988;28;20398;-88
2021/01/10 09:38:33;;;;;;;1.60;0.28;;;20.20;97.10;;;;;;5064586;28;20433;-87
2021/01/10 09:41:13;;;;;;;2.20;0.20;;;20.10;97.30;;;;;;5067533;28;20451;-87
2021/01/10 09:43:49;;;;;;;1.52;0.20;;;20.10;97.50;;;;;;5064416;28;20398;-89
2021/01/10 09:46:28;;;;;;;2.25;0.30;;;20.10;97.70;;;;;;5049225;28;20390;-88
2021/01/10 09:49:06;;;;;;;1.25;0.30;;;20.00;97.80;;;;;;5066975;28;20385;-87
2021/01/10 09:51:41;;;;;;;2.53;0.28;;;19.90;98.00;;;;;;5061179;28;20397;-90
2021/01/10 09:54:19;;;;;;;1.63;0.32;;;19.90;98.20;;;;;;5055874;28;20390;-88
2021/01/10 09:56:55;;;;;;;0.80;0.20;;;19.90;98.10;;;;;;5043819;28;20435;-86
2021/01/10 09:59:41;;;;;;;0.60;0.20;;;19.80;98.20;;;;;;5049889;28;20487;-87
2021/01/10 10:02:11;;;;;;;3.13;0.40;;;19.70;98.40;;;;;;5045571;28;20879;-86
2021/01/10 10:04:38;;;;;;;1.70;0.40;;;19.70;98.40;;;;;;5057535;28;20402;-85
2021/01/10 10:07:06;;;;;;;2.63;0.20;;;19.70;98.40;;;;;;5058014;28;20388;-86
2021/01/10 10:09:53;;;;;;;1.75;0.20;;;19.70;98.50;;;;;;5064737;28;20386;-85
2021/01/10 10:12:28;;;;;;;0.70;0.13;;;19.70;98.60;;;;;;5061719;28;20735;-88
2021/01/10 10:15:00;;;;;;;0.50;0.20;;;19.70;98.80;;;;;;5058011;28;20916;-86
2021/01/10 10:17:36;;;;;;;1.67;0.28;;;19.60;98.80;;;;;;5063850;28;20398;-87
2021/01/10 10:20:05;;;;;;;0.80;0.10;;;19.60;98.90;;;;;;5058926;28;20413;-86
2021/01/10 10:23:13;;;;;;;;;;;;;;;;;;;;;
2021/01/10 10:25:50;;;;;;;0.82;0.22;;;19.60;98.90;;;;;;5063934;28;20976;-91
2021/01/10 10:28:20;;;;;;;0.20;0.15;;;19.60;99.10;;;;;;5052932;28;20386;-87
2021/01/10 10:30:50;;;;;;;0.70;0.17;;;19.50;99.30;;;;;;5065504;28;20426;-87
2021/01/10 10:33:23;;;;;;;1.30;0.40;;;19.50;99.30;;;;;;5067040;28;20381;-86
2021/01/10 10:35:50;;;;;;;1.90;0.20;;;19.40;99.40;;;;;;5068613;28;20397;-86
2021/01/10 10:38:26;;;;;;;1.13;0.30;;;19.40;99.40;;;;;;5069034;28;20410;-88
2021/01/10 10:40:59;;;;;;;0.70;0.10;;;19.40;99.50;;;;;;5046093;28;20459;-87
2021/01/10 10:43:35;;;;;;;0.90;0.30;;;19.40;99.50;;;;;;5051364;28;20417;-88
2021/01/10 10:46:05;;;;;;;1.80;0.30;;;19.40;99.50;;;;;;5067670;28;20378;-86
2021/01/10 10:48:37;;;;;;;0.90;0.32;;;19.40;99.80;;;;;;5066137;28;20386;-85
2021/01/10 10:51:07;;;;;;;1.30;0.20;;;19.40;99.80;;;;;;5064222;28;20967;-86
2021/01/10 10:53:34;;;;;;;1.90;0.25;;;19.40;99.90;;;;;;5067906;28;20946;-85
2021/01/10 10:56:01;;;;;;;0.70;0.20;;;19.40;99.90;;;;;;5061627;28;20429;-86
2021/01/10 10:58:31;;;;;;;1.70;0.30;;;19.30;99.90;;;;;;5068014;28;20424;-87
2021/01/10 11:01:01;;;;;;;1.38;0.30;;;19.40;99.90;;;;;;5068332;28;20448;-85
2021/01/10 11:03:28;;;;;;;0.60;0.20;;;19.40;99.90;;;;;;5071060;28;20417;-85
2021/01/10 11:05:55;;;;;;;0.75;0.40;;;19.40;99.90;;;;;;5072093;28;20407;-85
2021/01/10 11:08:22;;;;;;;0.60;0.20;;;19.30;99.90;;;;;;5070836;28;20757;-84
2021/01/10 11:10:49;;;;;;;0.98;0.20;;;19.30;99.90;;;;;;5086542;28;20507;-85
2021/01/10 11:13:16;;;;;;;0.60;0.20;;;19.30;99.90;;;;;;5074149;28;20393;-85
2021/01/10 11:15:43;;;;;;;1.90;0.10;;;19.30;99.90;;;;;;5071391;28;20556;-85
2021/01/10 11:18:10;;;;;;;1.00;0.20;;;19.20;99.90;;;;;;5071509;28;20413;-86
2021/01/10 11:20:37;;;;;;;1.75;0.20;;;19.30;99.90;;;;;;5058546;28;20375;-85
2021/01/10 11:23:04;;;;;;;1.40;0.35;;;19.20;99.90;;;;;;5077505;28;20428;-86
2021/01/10 11:25:32;;;;;;;1.40;0.30;;;19.20;99.90;;;;;;5067661;28;20466;-86
2021/01/10 11:27:59;;;;;;;1.55;0.32;;;19.10;99.90;;;;;;5070316;28;20384;-86
2021/01/10 11:30:26;;;;;;;0.80;0.20;;;19.10;99.90;;;;;;5058599;28;20389;-86
2021/01/10 11:32:53;;;;;;;0.83;0.20;;;19.10;99.90;;;;;;5079044;28;20416;-86
2021/01/10 11:35:20;;;;;;;0.60;0.20;;;19.00;99.90;;;;;;5081451;28;20436;-85
2021/01/10 11:37:49;;;;;;;0.90;0.30;;;19.00;99.90;;;;;;5073416;28;20404;-88
2021/01/10 11:40:16;;;;;;;3.63;0.30;;;19.00;99.90;;;;;;5065722;28;20386;-86
2021/01/10 11:42:43;;;;;;;0.40;0.13;;;19.00;99.90;;;;;;5067393;28;20481;-85
2021/01/10 11:45:11;;;;;;;2.90;0.30;;;19.00;99.90;;;;;;5067761;28;20378;-85
2021/01/10 11:47:38;;;;;;;1.52;0.38;;;19.00;99.90;;;;;;5025329;28;20936;-85
2021/01/10 11:50:05;;;;;;;1.30;0.40;;;18.90;99.90;;;;;;5053267;28;20391;-87
2021/01/10 11:52:32;;;;;;;1.15;0.20;;;18.90;99.90;;;;;;5066901;28;20742;-85
2021/01/10 11:54:59;;;;;;;1.27;0.45;;;18.90;99.90;;;;;;5042965;28;20392;-86
2021/01/10 11:57:26;;;;;;;2.40;0.30;;;18.90;99.90;;;;;;5048463;28;20379;-85
2021/01/10 11:59:53;;;;;;;0.85;0.20;;;18.90;99.90;;;;;;5043684;28;20398;-85
2021/01/10 12:02:20;;;;;;;3.00;0.50;;;18.80;99.90;;;;;;5068546;28;20392;-86
2021/01/10 12:04:47;;;;;;;2.30;0.40;;;18.90;99.90;;;;;;5066515;28;20382;-86
2021/01/10 12:07:14;;;;;;;2.05;0.30;;;18.90;99.90;;;;;;5058887;28;20382;-85
2021/01/10 12:09:41;;;;;;;1.42;0.30;;;18.90;99.90;;;;;;5062207;28;20448;-86
2021/01/10 12:12:09;;;;;;;0.55;0.20;;;18.80;99.90;;;;;;5067705;28;20382;-86
2021/01/10 12:14:36;;;;;;;0.40;0.20;;;18.80;99.90;;;;;;5066401;28;20901;-86
2021/01/10 12:17:03;;;;;;;2.60;0.50;;;18.80;99.90;;;;;;5068311;28;20378;-86
2021/01/10 12:19:30;;;;;;;2.55;0.30;;;18.80;99.90;;;;;;5066140;28;20492;-86
2021/01/10 12:21:57;;;;;;;2.47;0.30;;;18.80;99.90;;;;;;5048141;28;21487;-86
2021/01/10 12:24:24;;;;;;;0.45;0.17;;;18.70;99.90;;;;;;5048569;28;20450;-84
2021/01/10 12:26:51;;;;;;;1.38;0.20;;;18.80;99.90;;;;;;5065002;28;20451;-84
2021/01/10 12:29:18;;;;;;;1.40;0.30;;;18.80;99.90;;;;;;5066344;28;20753;-85
2021/01/10 12:31:45;;;;;;;1.17;0.47;;;18.80;99.90;;;;;;5064837;28;20393;-85
2021/01/10 12:34:13;;;;;;;1.48;0.30;;;18.70;99.90;;;;;;5064907;28;20761;-84
2021/01/10 12:36:41;;;;;;;0.30;0.20;;;18.70;99.90;;;;;;5068089;28;20446;-87
2021/01/10 12:39:08;;;;;;;1.65;0.40;;;18.60;99.90;;;;;;5069800;28;20406;-85
2021/01/10 12:41:35;;;;;;;1.48;0.28;;;18.60;99.90;;;;;;5072088;28;20900;-85
2021/01/10 12:44:02;;;;;;;1.10;0.28;;;18.60;99.90;;;;;;5070044;28;20445;-84
2021/01/10 12:46:30;;;;;;;0.90;0.40;;;18.50;99.90;;;;;;5071184;28;20590;-85
2021/01/10 12:48:57;;;;;;;1.05;0.20;;;18.50;99.90;;;;;;5071203;28;20394;-85
2021/01/10 12:51:24;;;;;;;3.38;0.38;;;18.50;99.90;;;;;;5070638;28;20393;-85
2021/01/10 12:53:51;;;;;;;1.93;0.30;;;18.50;99.90;;;;;;5068262;28;20394;-85
2021/01/10 12:56:18;;;;;;;0.93;0.30;;;18.50;99.90;;;;;;5070151;28;20404;-85
2021/01/10 12:58:45;;;;;;;1.05;0.30;;;18.40;99.90;;;;;;5071694;28;20398;-85
2021/01/10 13:01:13;;;;;;;1.98;0.20;;;18.50;99.90;;;;;;5068247;28;20477;-85
2021/01/10 13:03:41;;;;;;;1.40;0.30;;;18.50;99.90;;;;;;5064864;28;20390;-85
2021/01/10 13:06:08;;;;;;;1.30;0.25;;;18.50;99.90;;;;;;5069411;28;20509;-85